AOO weather

Altoona Blair County Airport
Altoona, Pennsylvania, United States

Public forecast

Using degrees Fahrenheit for public forecast. Weather courtesy of forecast.io.

Current aviation weather report (METAR) for Altoona Blair County Airport

Retrieved 2019/10/13 23:53 UTC (40 minutes ago):

KAOO 132353Z AUTO 18006KT 10SM CLR 12/04 A3000 RMK AO2 SLP167 T01220039 10172 20122 53005

Aviation forecast (TAF) for Altoona Blair County Airport

Retrieved 2019-10-14 00:00 UTC (33 minutes ago):

TAF KAOO 132359Z 1400/1424 18003KT P6SM SKC FM141500 26012G18KT P6SM SCT050